sensor_id;sensor_type;location;lat;lon;timestamp;P1;durP1;ratioP1;P2;durP2;ratioP2
7128;SDS011;3606;52.930;8.644;2022-08-19T00:01:44;19.47;;;11.93;;
7128;SDS011;3606;52.930;8.644;2022-08-19T00:04:11;22.80;;;12.47;;
7128;SDS011;3606;52.930;8.644;2022-08-19T00:06:40;17.97;;;13.33;;
7128;SDS011;3606;52.930;8.644;2022-08-19T00:09:08;19.03;;;11.83;;
7128;SDS011;3606;52.930;8.644;2022-08-19T00:11:36;20.10;;;12.73;;
7128;SDS011;3606;52.930;8.644;2022-08-19T00:14:03;19.63;;;12.37;;
7128;SDS011;3606;52.930;8.644;2022-08-19T00:16:30;20.57;;;11.97;;
7128;SDS011;3606;52.930;8.644;2022-08-19T00:18:55;17.17;;;12.30;;
7128;SDS011;3606;52.930;8.644;2022-08-19T00:21:22;18.67;;;11.77;;
7128;SDS011;3606;52.930;8.644;2022-08-19T00:23:48;20.73;;;11.93;;
7128;SDS011;3606;52.930;8.644;2022-08-19T00:26:14;18.47;;;12.40;;
7128;SDS011;3606;52.930;8.644;2022-08-19T00:28:40;18.07;;;11.20;;
7128;SDS011;3606;52.930;8.644;2022-08-19T00:31:06;19.47;;;12.70;;
7128;SDS011;3606;52.930;8.644;2022-08-19T00:33:33;17.47;;;12.17;;
7128;SDS011;3606;52.930;8.644;2022-08-19T00:35:59;17.43;;;11.60;;
7128;SDS011;3606;52.930;8.644;2022-08-19T00:38:26;15.33;;;11.07;;
7128;SDS011;3606;52.930;8.644;2022-08-19T00:40:52;15.03;;;11.00;;
7128;SDS011;3606;52.930;8.644;2022-08-19T00:43:19;17.40;;;11.67;;
7128;SDS011;3606;52.930;8.644;2022-08-19T00:45:46;17.17;;;12.17;;
7128;SDS011;3606;52.930;8.644;2022-08-19T00:48:13;16.40;;;11.43;;
7128;SDS011;3606;52.930;8.644;2022-08-19T00:50:40;20.43;;;12.20;;
7128;SDS011;3606;52.930;8.644;2022-08-19T00:53:07;18.67;;;12.57;;
7128;SDS011;3606;52.930;8.644;2022-08-19T00:55:35;20.40;;;12.90;;
7128;SDS011;3606;52.930;8.644;2022-08-19T00:58:02;20.33;;;12.93;;
7128;SDS011;3606;52.930;8.644;2022-08-19T01:00:33;18.83;;;12.70;;
7128;SDS011;3606;52.930;8.644;2022-08-19T01:03:05;19.13;;;11.87;;
7128;SDS011;3606;52.930;8.644;2022-08-19T01:05:34;16.50;;;10.90;;
7128;SDS011;3606;52.930;8.644;2022-08-19T01:08:02;16.70;;;11.37;;
7128;SDS011;3606;52.930;8.644;2022-08-19T01:10:31;17.07;;;11.10;;
7128;SDS011;3606;52.930;8.644;2022-08-19T01:13:00;13.73;;;10.73;;
7128;SDS011;3606;52.930;8.644;2022-08-19T01:15:29;21.07;;;11.77;;
7128;SDS011;3606;52.930;8.644;2022-08-19T01:17:57;19.13;;;11.40;;
7128;SDS011;3606;52.930;8.644;2022-08-19T01:20:30;15.97;;;11.53;;
7128;SDS011;3606;52.930;8.644;2022-08-19T01:22:58;16.03;;;11.13;;
7128;SDS011;3606;52.930;8.644;2022-08-19T01:28:18;14.77;;;10.53;;
7128;SDS011;3606;52.930;8.644;2022-08-19T01:30:46;13.67;;;10.67;;
7128;SDS011;3606;52.930;8.644;2022-08-19T01:33:13;13.83;;;10.57;;
7128;SDS011;3606;52.930;8.644;2022-08-19T01:35:39;16.73;;;11.87;;
7128;SDS011;3606;52.930;8.644;2022-08-19T01:38:06;15.10;;;11.33;;
7128;SDS011;3606;52.930;8.644;2022-08-19T01:40:37;17.03;;;10.83;;
7128;SDS011;3606;52.930;8.644;2022-08-19T01:43:04;15.27;;;10.67;;
7128;SDS011;3606;52.930;8.644;2022-08-19T01:45:31;17.00;;;11.03;;
7128;SDS011;3606;52.930;8.644;2022-08-19T01:47:59;15.57;;;11.00;;
7128;SDS011;3606;52.930;8.644;2022-08-19T01:50:26;16.43;;;10.27;;
7128;SDS011;3606;52.930;8.644;2022-08-19T01:52:52;17.17;;;10.73;;
7128;SDS011;3606;52.930;8.644;2022-08-19T01:55:19;18.47;;;10.70;;
7128;SDS011;3606;52.930;8.644;2022-08-19T01:57:54;14.63;;;9.47;;
7128;SDS011;3606;52.930;8.644;2022-08-19T02:00:23;15.17;;;10.77;;
7128;SDS011;3606;52.930;8.644;2022-08-19T02:02:52;15.80;;;10.70;;
7128;SDS011;3606;52.930;8.644;2022-08-19T02:05:19;13.90;;;10.30;;
7128;SDS011;3606;52.930;8.644;2022-08-19T02:07:46;16.23;;;10.63;;
7128;SDS011;3606;52.930;8.644;2022-08-19T02:10:14;14.57;;;10.97;;
7128;SDS011;3606;52.930;8.644;2022-08-19T02:12:45;16.47;;;10.83;;
7128;SDS011;3606;52.930;8.644;2022-08-19T02:15:11;19.20;;;12.40;;
7128;SDS011;3606;52.930;8.644;2022-08-19T02:17:37;18.37;;;10.87;;
7128;SDS011;3606;52.930;8.644;2022-08-19T02:20:04;19.03;;;11.63;;
7128;SDS011;3606;52.930;8.644;2022-08-19T02:22:31;19.27;;;12.13;;
7128;SDS011;3606;52.930;8.644;2022-08-19T02:24:57;19.47;;;12.53;;
7128;SDS011;3606;52.930;8.644;2022-08-19T02:27:23;20.97;;;11.70;;
7128;SDS011;3606;52.930;8.644;2022-08-19T02:29:49;18.50;;;11.43;;
7128;SDS011;3606;52.930;8.644;2022-08-19T02:32:16;17.37;;;11.53;;
7128;SDS011;3606;52.930;8.644;2022-08-19T02:34:44;18.50;;;11.13;;
7128;SDS011;3606;52.930;8.644;2022-08-19T02:37:10;14.23;;;10.07;;
7128;SDS011;3606;52.930;8.644;2022-08-19T02:39:55;14.93;;;10.00;;
7128;SDS011;3606;52.930;8.644;2022-08-19T02:42:21;15.50;;;10.33;;
7128;SDS011;3606;52.930;8.644;2022-08-19T02:44:47;14.13;;;10.13;;
7128;SDS011;3606;52.930;8.644;2022-08-19T02:47:13;16.70;;;10.97;;
7128;SDS011;3606;52.930;8.644;2022-08-19T02:49:40;15.43;;;11.10;;
7128;SDS011;3606;52.930;8.644;2022-08-19T02:52:06;14.83;;;10.50;;
7128;SDS011;3606;52.930;8.644;2022-08-19T02:54:32;15.07;;;10.97;;
7128;SDS011;3606;52.930;8.644;2022-08-19T02:56:57;18.77;;;12.83;;
7128;SDS011;3606;52.930;8.644;2022-08-19T02:59:23;22.23;;;12.87;;
7128;SDS011;3606;52.930;8.644;2022-08-19T03:01:50;20.53;;;12.27;;
7128;SDS011;3606;52.930;8.644;2022-08-19T03:04:16;20.83;;;13.17;;
7128;SDS011;3606;52.930;8.644;2022-08-19T03:06:43;21.93;;;12.50;;
7128;SDS011;3606;52.930;8.644;2022-08-19T03:09:10;18.80;;;11.90;;
7128;SDS011;3606;52.930;8.644;2022-08-19T03:11:36;18.13;;;12.03;;
7128;SDS011;3606;52.930;8.644;2022-08-19T03:14:03;15.90;;;11.97;;
7128;SDS011;3606;52.930;8.644;2022-08-19T03:16:30;19.70;;;12.40;;
7128;SDS011;3606;52.930;8.644;2022-08-19T03:18:57;16.90;;;11.83;;
7128;SDS011;3606;52.930;8.644;2022-08-19T03:21:27;20.90;;;11.93;;
7128;SDS011;3606;52.930;8.644;2022-08-19T03:23:58;15.43;;;11.43;;
7128;SDS011;3606;52.930;8.644;2022-08-19T03:26:29;12.93;;;10.17;;
7128;SDS011;3606;52.930;8.644;2022-08-19T03:28:54;16.20;;;11.97;;
7128;SDS011;3606;52.930;8.644;2022-08-19T03:31:21;18.27;;;12.83;;
7128;SDS011;3606;52.930;8.644;2022-08-19T03:33:48;18.70;;;13.47;;
7128;SDS011;3606;52.930;8.644;2022-08-19T03:36:17;20.30;;;13.23;;
7128;SDS011;3606;52.930;8.644;2022-08-19T03:38:46;22.37;;;14.17;;
7128;SDS011;3606;52.930;8.644;2022-08-19T03:41:15;23.70;;;15.37;;
7128;SDS011;3606;52.930;8.644;2022-08-19T03:43:43;24.60;;;14.90;;
7128;SDS011;3606;52.930;8.644;2022-08-19T03:46:13;21.20;;;14.90;;
7128;SDS011;3606;52.930;8.644;2022-08-19T03:48:40;21.67;;;14.67;;
7128;SDS011;3606;52.930;8.644;2022-08-19T03:51:07;25.40;;;14.77;;
7128;SDS011;3606;52.930;8.644;2022-08-19T03:53:40;19.83;;;14.37;;
7128;SDS011;3606;52.930;8.644;2022-08-19T03:56:08;24.23;;;15.07;;
7128;SDS011;3606;52.930;8.644;2022-08-19T03:58:34;21.03;;;14.20;;
7128;SDS011;3606;52.930;8.644;2022-08-19T04:01:00;22.93;;;15.30;;
7128;SDS011;3606;52.930;8.644;2022-08-19T04:03:26;21.27;;;15.17;;
7128;SDS011;3606;52.930;8.644;2022-08-19T04:05:54;26.33;;;15.10;;
7128;SDS011;3606;52.930;8.644;2022-08-19T04:08:20;23.07;;;15.23;;
7128;SDS011;3606;52.930;8.644;2022-08-19T04:10:47;25.17;;;15.83;;
7128;SDS011;3606;52.930;8.644;2022-08-19T04:13:14;27.47;;;17.83;;
7128;SDS011;3606;52.930;8.644;2022-08-19T04:15:42;27.67;;;17.83;;
7128;SDS011;3606;52.930;8.644;2022-08-19T04:18:11;24.80;;;17.90;;
7128;SDS011;3606;52.930;8.644;2022-08-19T04:20:42;21.70;;;15.20;;
7128;SDS011;3606;52.930;8.644;2022-08-19T04:23:09;26.37;;;17.23;;
7128;SDS011;3606;52.930;8.644;2022-08-19T04:25:39;24.67;;;16.70;;
7128;SDS011;3606;52.930;8.644;2022-08-19T04:28:07;26.00;;;16.50;;
7128;SDS011;3606;52.930;8.644;2022-08-19T04:30:42;25.70;;;16.23;;
7128;SDS011;3606;52.930;8.644;2022-08-19T04:33:10;23.70;;;15.67;;
7128;SDS011;3606;52.930;8.644;2022-08-19T04:35:40;25.93;;;16.30;;
7128;SDS011;3606;52.930;8.644;2022-08-19T04:38:08;22.27;;;15.03;;
7128;SDS011;3606;52.930;8.644;2022-08-19T04:40:39;28.47;;;16.90;;
7128;SDS011;3606;52.930;8.644;2022-08-19T04:43:24;25.23;;;16.97;;
7128;SDS011;3606;52.930;8.644;2022-08-19T04:45:50;32.87;;;17.97;;
7128;SDS011;3606;52.930;8.644;2022-08-19T04:48:16;27.40;;;17.97;;
7128;SDS011;3606;52.930;8.644;2022-08-19T04:50:44;30.47;;;17.70;;
7128;SDS011;3606;52.930;8.644;2022-08-19T04:53:10;28.33;;;16.90;;
7128;SDS011;3606;52.930;8.644;2022-08-19T04:55:38;29.77;;;17.70;;
7128;SDS011;3606;52.930;8.644;2022-08-19T04:58:05;26.87;;;16.47;;
7128;SDS011;3606;52.930;8.644;2022-08-19T05:00:31;27.70;;;16.73;;
7128;SDS011;3606;52.930;8.644;2022-08-19T05:02:57;29.40;;;16.67;;
7128;SDS011;3606;52.930;8.644;2022-08-19T05:05:22;25.63;;;17.10;;
7128;SDS011;3606;52.930;8.644;2022-08-19T05:07:48;24.83;;;15.97;;
7128;SDS011;3606;52.930;8.644;2022-08-19T05:10:13;27.17;;;14.87;;
7128;SDS011;3606;52.930;8.644;2022-08-19T05:12:39;27.33;;;15.13;;
7128;SDS011;3606;52.930;8.644;2022-08-19T05:15:06;22.87;;;15.30;;
7128;SDS011;3606;52.930;8.644;2022-08-19T05:17:33;23.67;;;13.60;;
7128;SDS011;3606;52.930;8.644;2022-08-19T05:19:59;23.27;;;14.27;;
7128;SDS011;3606;52.930;8.644;2022-08-19T05:22:44;26.27;;;14.70;;
7128;SDS011;3606;52.930;8.644;2022-08-19T05:25:12;20.33;;;13.43;;
7128;SDS011;3606;52.930;8.644;2022-08-19T05:27:45;18.73;;;13.33;;
7128;SDS011;3606;52.930;8.644;2022-08-19T05:30:12;22.33;;;13.43;;
7128;SDS011;3606;52.930;8.644;2022-08-19T05:32:38;20.10;;;13.00;;
7128;SDS011;3606;52.930;8.644;2022-08-19T05:35:04;20.23;;;13.17;;
7128;SDS011;3606;52.930;8.644;2022-08-19T05:37:31;21.87;;;13.87;;
7128;SDS011;3606;52.930;8.644;2022-08-19T05:39:56;21.47;;;13.53;;
7128;SDS011;3606;52.930;8.644;2022-08-19T05:42:22;23.37;;;13.80;;
7128;SDS011;3606;52.930;8.644;2022-08-19T05:44:48;16.50;;;11.83;;
7128;SDS011;3606;52.930;8.644;2022-08-19T05:47:14;18.87;;;12.70;;
7128;SDS011;3606;52.930;8.644;2022-08-19T05:49:40;22.37;;;12.57;;
7128;SDS011;3606;52.930;8.644;2022-08-19T05:52:08;16.50;;;11.47;;
7128;SDS011;3606;52.930;8.644;2022-08-19T05:54:36;16.20;;;11.33;;
7128;SDS011;3606;52.930;8.644;2022-08-19T05:57:05;17.43;;;11.13;;
7128;SDS011;3606;52.930;8.644;2022-08-19T05:59:31;14.23;;;11.27;;
7128;SDS011;3606;52.930;8.644;2022-08-19T06:02:00;14.57;;;10.60;;
7128;SDS011;3606;52.930;8.644;2022-08-19T06:04:26;14.93;;;10.63;;
7128;SDS011;3606;52.930;8.644;2022-08-19T06:06:52;19.77;;;12.03;;
7128;SDS011;3606;52.930;8.644;2022-08-19T06:09:19;20.77;;;11.30;;
7128;SDS011;3606;52.930;8.644;2022-08-19T06:11:47;13.97;;;11.67;;
7128;SDS011;3606;52.930;8.644;2022-08-19T06:14:18;14.07;;;10.57;;
7128;SDS011;3606;52.930;8.644;2022-08-19T06:16:46;12.73;;;10.10;;
7128;SDS011;3606;52.930;8.644;2022-08-19T06:19:15;10.57;;;8.93;;
7128;SDS011;3606;52.930;8.644;2022-08-19T06:21:43;11.47;;;9.53;;
7128;SDS011;3606;52.930;8.644;2022-08-19T06:24:12;10.53;;;8.33;;
7128;SDS011;3606;52.930;8.644;2022-08-19T06:26:40;10.47;;;8.30;;
7128;SDS011;3606;52.930;8.644;2022-08-19T06:29:08;9.60;;;7.87;;
7128;SDS011;3606;52.930;8.644;2022-08-19T06:31:35;10.67;;;8.00;;
7128;SDS011;3606;52.930;8.644;2022-08-19T06:34:03;8.30;;;6.83;;
7128;SDS011;3606;52.930;8.644;2022-08-19T06:38:59;9.17;;;6.33;;
7128;SDS011;3606;52.930;8.644;2022-08-19T06:41:26;8.73;;;6.57;;
7128;SDS011;3606;52.930;8.644;2022-08-19T06:43:53;7.93;;;6.40;;
7128;SDS011;3606;52.930;8.644;2022-08-19T06:46:20;6.57;;;5.97;;
7128;SDS011;3606;52.930;8.644;2022-08-19T06:48:46;7.03;;;6.33;;
7128;SDS011;3606;52.930;8.644;2022-08-19T06:51:16;7.30;;;5.67;;
7128;SDS011;3606;52.930;8.644;2022-08-19T06:53:46;6.57;;;5.40;;
7128;SDS011;3606;52.930;8.644;2022-08-19T06:56:13;8.50;;;6.53;;
7128;SDS011;3606;52.930;8.644;2022-08-19T06:58:40;7.00;;;6.30;;
7128;SDS011;3606;52.930;8.644;2022-08-19T07:01:06;7.13;;;5.90;;
7128;SDS011;3606;52.930;8.644;2022-08-19T07:03:33;7.17;;;4.67;;
7128;SDS011;3606;52.930;8.644;2022-08-19T07:06:13;6.57;;;5.07;;
7128;SDS011;3606;52.930;8.644;2022-08-19T07:08:42;6.73;;;5.53;;
7128;SDS011;3606;52.930;8.644;2022-08-19T07:11:11;7.30;;;5.03;;
7128;SDS011;3606;52.930;8.644;2022-08-19T07:13:38;5.63;;;5.03;;
7128;SDS011;3606;52.930;8.644;2022-08-19T07:16:08;5.47;;;4.97;;
7128;SDS011;3606;52.930;8.644;2022-08-19T07:18:36;6.93;;;5.10;;
7128;SDS011;3606;52.930;8.644;2022-08-19T07:21:10;6.33;;;5.03;;
7128;SDS011;3606;52.930;8.644;2022-08-19T07:23:38;5.33;;;4.83;;
7128;SDS011;3606;52.930;8.644;2022-08-19T07:28:39;8.20;;;4.40;;
7128;SDS011;3606;52.930;8.644;2022-08-19T07:31:10;7.03;;;4.75;;
7128;SDS011;3606;52.930;8.644;2022-08-19T07:33:38;7.10;;;4.25;;
7128;SDS011;3606;52.930;8.644;2022-08-19T07:36:05;4.88;;;4.38;;
7128;SDS011;3606;52.930;8.644;2022-08-19T07:38:33;5.53;;;4.28;;
7128;SDS011;3606;52.930;8.644;2022-08-19T07:40:59;4.55;;;3.60;;
7128;SDS011;3606;52.930;8.644;2022-08-19T07:43:26;4.50;;;3.72;;
7128;SDS011;3606;52.930;8.644;2022-08-19T07:45:53;5.20;;;3.65;;
7128;SDS011;3606;52.930;8.644;2022-08-19T07:48:22;4.65;;;3.30;;
7128;SDS011;3606;52.930;8.644;2022-08-19T07:50:50;3.80;;;3.05;;
7128;SDS011;3606;52.930;8.644;2022-08-19T07:53:22;4.72;;;3.58;;
7128;SDS011;3606;52.930;8.644;2022-08-19T07:55:48;4.53;;;3.60;;
7128;SDS011;3606;52.930;8.644;2022-08-19T07:58:15;4.47;;;3.30;;
7128;SDS011;3606;52.930;8.644;2022-08-19T08:00:44;5.93;;;3.03;;
7128;SDS011;3606;52.930;8.644;2022-08-19T08:03:12;3.33;;;3.03;;
7128;SDS011;3606;52.930;8.644;2022-08-19T08:05:38;6.20;;;3.60;;
7128;SDS011;3606;52.930;8.644;2022-08-19T08:08:23;6.18;;;3.97;;
7128;SDS011;3606;52.930;8.644;2022-08-19T08:11:07;6.75;;;4.32;;
7128;SDS011;3606;52.930;8.644;2022-08-19T08:13:33;3.83;;;3.47;;
7128;SDS011;3606;52.930;8.644;2022-08-19T08:16:00;4.85;;;3.28;;
7128;SDS011;3606;52.930;8.644;2022-08-19T08:18:27;6.60;;;3.63;;
7128;SDS011;3606;52.930;8.644;2022-08-19T08:20:53;4.20;;;3.78;;
7128;SDS011;3606;52.930;8.644;2022-08-19T08:23:19;4.30;;;3.65;;
7128;SDS011;3606;52.930;8.644;2022-08-19T08:25:49;5.45;;;3.70;;
7128;SDS011;3606;52.930;8.644;2022-08-19T08:28:19;5.50;;;3.47;;
7128;SDS011;3606;52.930;8.644;2022-08-19T08:30:45;4.55;;;3.10;;
7128;SDS011;3606;52.930;8.644;2022-08-19T08:33:13;6.15;;;4.10;;
7128;SDS011;3606;52.930;8.644;2022-08-19T08:35:46;4.30;;;3.90;;
7128;SDS011;3606;52.930;8.644;2022-08-19T08:38:12;4.72;;;3.55;;
7128;SDS011;3606;52.930;8.644;2022-08-19T08:45:59;3.58;;;3.10;;
7128;SDS011;3606;52.930;8.644;2022-08-19T08:48:38;4.15;;;3.10;;
7128;SDS011;3606;52.930;8.644;2022-08-19T08:51:18;4.47;;;3.30;;
7128;SDS011;3606;52.930;8.644;2022-08-19T08:53:49;6.63;;;3.03;;
7128;SDS011;3606;52.930;8.644;2022-08-19T08:56:18;6.53;;;3.22;;
7128;SDS011;3606;52.930;8.644;2022-08-19T08:58:47;2.97;;;2.67;;
7128;SDS011;3606;52.930;8.644;2022-08-19T09:01:31;3.20;;;2.40;;
7128;SDS011;3606;52.930;8.644;2022-08-19T09:03:57;4.43;;;2.90;;
7128;SDS011;3606;52.930;8.644;2022-08-19T09:06:40;5.38;;;2.83;;
7128;SDS011;3606;52.930;8.644;2022-08-19T09:09:32;2.78;;;2.58;;
7128;SDS011;3606;52.930;8.644;2022-08-19T09:17:12;4.53;;;2.88;;
7128;SDS011;3606;52.930;8.644;2022-08-19T09:19:49;3.50;;;2.88;;
7128;SDS011;3606;52.930;8.644;2022-08-19T09:22:19;4.63;;;3.20;;
7128;SDS011;3606;52.930;8.644;2022-08-19T09:24:47;4.15;;;2.67;;
7128;SDS011;3606;52.930;8.644;2022-08-19T09:27:14;2.92;;;2.58;;
7128;SDS011;3606;52.930;8.644;2022-08-19T09:29:39;3.15;;;2.78;;
7128;SDS011;3606;52.930;8.644;2022-08-19T09:32:05;4.47;;;2.85;;
7128;SDS011;3606;52.930;8.644;2022-08-19T09:34:31;4.88;;;2.70;;
7128;SDS011;3606;52.930;8.644;2022-08-19T09:36:57;4.30;;;2.63;;
7128;SDS011;3606;52.930;8.644;2022-08-19T09:39:25;4.75;;;2.60;;
7128;SDS011;3606;52.930;8.644;2022-08-19T09:41:50;3.55;;;2.33;;
7128;SDS011;3606;52.930;8.644;2022-08-19T09:44:17;6.00;;;2.78;;
7128;SDS011;3606;52.930;8.644;2022-08-19T09:46:45;3.65;;;2.05;;
7128;SDS011;3606;52.930;8.644;2022-08-19T09:49:14;3.33;;;1.98;;
7128;SDS011;3606;52.930;8.644;2022-08-19T09:51:48;3.00;;;2.10;;
7128;SDS011;3606;52.930;8.644;2022-08-19T09:54:15;3.58;;;1.60;;
7128;SDS011;3606;52.930;8.644;2022-08-19T09:56:40;2.20;;;2.00;;
7128;SDS011;3606;52.930;8.644;2022-08-19T09:59:06;3.13;;;2.20;;
7128;SDS011;3606;52.930;8.644;2022-08-19T10:01:31;2.10;;;1.90;;
7128;SDS011;3606;52.930;8.644;2022-08-19T10:03:58;2.95;;;1.65;;
7128;SDS011;3606;52.930;8.644;2022-08-19T10:06:26;2.58;;;1.67;;
7128;SDS011;3606;52.930;8.644;2022-08-19T10:08:55;2.15;;;1.75;;
7128;SDS011;3606;52.930;8.644;2022-08-19T10:11:20;4.57;;;1.98;;
7128;SDS011;3606;52.930;8.644;2022-08-19T10:13:47;3.35;;;1.90;;
7128;SDS011;3606;52.930;8.644;2022-08-19T10:16:14;2.17;;;1.48;;
7128;SDS011;3606;52.930;8.644;2022-08-19T10:18:42;2.33;;;2.03;;
7128;SDS011;3606;52.930;8.644;2022-08-19T10:21:41;3.25;;;2.40;;
7128;SDS011;3606;52.930;8.644;2022-08-19T10:24:01;2.35;;;1.67;;
7128;SDS011;3606;52.930;8.644;2022-08-19T10:26:30;1.95;;;1.60;;
7128;SDS011;3606;52.930;8.644;2022-08-19T10:28:58;2.40;;;1.70;;
7128;SDS011;3606;52.930;8.644;2022-08-19T10:31:25;2.17;;;1.40;;
7128;SDS011;3606;52.930;8.644;2022-08-19T10:33:53;1.60;;;1.35;;
7128;SDS011;3606;52.930;8.644;2022-08-19T10:36:23;1.45;;;0.80;;
7128;SDS011;3606;52.930;8.644;2022-08-19T10:38:51;1.55;;;1.20;;
7128;SDS011;3606;52.930;8.644;2022-08-19T10:41:22;1.63;;;1.20;;
7128;SDS011;3606;52.930;8.644;2022-08-19T10:43:52;2.67;;;1.20;;
7128;SDS011;3606;52.930;8.644;2022-08-19T10:46:20;1.25;;;1.05;;
7128;SDS011;3606;52.930;8.644;2022-08-19T10:48:48;1.13;;;1.02;;
7128;SDS011;3606;52.930;8.644;2022-08-19T10:51:14;1.35;;;1.15;;
7128;SDS011;3606;52.930;8.644;2022-08-19T10:53:59;1.35;;;1.20;;
7128;SDS011;3606;52.930;8.644;2022-08-19T10:56:25;2.05;;;1.10;;
7128;SDS011;3606;52.930;8.644;2022-08-19T10:59:11;1.38;;;1.27;;
7128;SDS011;3606;52.930;8.644;2022-08-19T11:01:38;1.52;;;1.42;;
7128;SDS011;3606;52.930;8.644;2022-08-19T11:04:05;1.45;;;0.70;;
7128;SDS011;3606;52.930;8.644;2022-08-19T11:06:34;1.55;;;1.08;;
7128;SDS011;3606;52.930;8.644;2022-08-19T11:09:04;1.45;;;1.20;;
7128;SDS011;3606;52.930;8.644;2022-08-19T11:11:30;2.28;;;1.40;;
7128;SDS011;3606;52.930;8.644;2022-08-19T11:13:57;2.45;;;1.05;;
7128;SDS011;3606;52.930;8.644;2022-08-19T11:16:24;0.80;;;0.77;;
7128;SDS011;3606;52.930;8.644;2022-08-19T11:18:53;1.30;;;1.20;;
7128;SDS011;3606;52.930;8.644;2022-08-19T11:23:51;1.90;;;1.17;;
7128;SDS011;3606;52.930;8.644;2022-08-19T11:26:19;1.27;;;1.17;;
7128;SDS011;3606;52.930;8.644;2022-08-19T11:28:47;1.13;;;1.08;;
7128;SDS011;3606;52.930;8.644;2022-08-19T11:31:14;1.85;;;1.30;;
7128;SDS011;3606;52.930;8.644;2022-08-19T11:33:42;1.30;;;1.20;;
7128;SDS011;3606;52.930;8.644;2022-08-19T11:36:08;2.00;;;1.13;;
7128;SDS011;3606;52.930;8.644;2022-08-19T11:38:35;2.05;;;1.15;;
7128;SDS011;3606;52.930;8.644;2022-08-19T11:41:04;6.18;;;1.58;;
7128;SDS011;3606;52.930;8.644;2022-08-19T11:43:32;1.30;;;1.10;;
7128;SDS011;3606;52.930;8.644;2022-08-19T11:45:58;1.38;;;1.27;;
7128;SDS011;3606;52.930;8.644;2022-08-19T11:48:24;2.35;;;1.27;;
7128;SDS011;3606;52.930;8.644;2022-08-19T11:50:51;1.50;;;1.27;;
7128;SDS011;3606;52.930;8.644;2022-08-19T11:53:21;4.80;;;1.38;;
7128;SDS011;3606;52.930;8.644;2022-08-19T11:55:48;1.85;;;1.50;;
7128;SDS011;3606;52.930;8.644;2022-08-19T11:58:15;2.25;;;1.30;;
7128;SDS011;3606;52.930;8.644;2022-08-19T12:00:42;2.03;;;1.48;;
7128;SDS011;3606;52.930;8.644;2022-08-19T12:03:10;1.33;;;1.23;;
7128;SDS011;3606;52.930;8.644;2022-08-19T12:05:37;1.58;;;1.20;;
7128;SDS011;3606;52.930;8.644;2022-08-19T12:08:04;3.65;;;1.17;;
7128;SDS011;3606;52.930;8.644;2022-08-19T12:10:30;4.78;;;1.40;;
7128;SDS011;3606;52.930;8.644;2022-08-19T12:12:55;1.95;;;1.10;;
7128;SDS011;3606;52.930;8.644;2022-08-19T12:15:21;1.30;;;1.20;;
7128;SDS011;3606;52.930;8.644;2022-08-19T12:17:46;1.27;;;1.00;;
7128;SDS011;3606;52.930;8.644;2022-08-19T12:20:12;1.38;;;1.25;;
7128;SDS011;3606;52.930;8.644;2022-08-19T12:22:40;1.15;;;1.05;;
7128;SDS011;3606;52.930;8.644;2022-08-19T12:25:07;1.42;;;1.30;;
7128;SDS011;3606;52.930;8.644;2022-08-19T12:27:36;2.55;;;1.35;;
7128;SDS011;3606;52.930;8.644;2022-08-19T12:30:03;1.17;;;1.15;;
7128;SDS011;3606;52.930;8.644;2022-08-19T12:32:31;1.13;;;1.10;;
7128;SDS011;3606;52.930;8.644;2022-08-19T12:34:56;1.90;;;1.50;;
7128;SDS011;3606;52.930;8.644;2022-08-19T12:37:22;2.13;;;1.25;;
7128;SDS011;3606;52.930;8.644;2022-08-19T12:39:48;1.80;;;1.23;;
7128;SDS011;3606;52.930;8.644;2022-08-19T12:42:13;3.30;;;1.35;;
7128;SDS011;3606;52.930;8.644;2022-08-19T12:44:40;0.93;;;0.90;;
7128;SDS011;3606;52.930;8.644;2022-08-19T12:47:07;1.63;;;1.25;;
7128;SDS011;3606;52.930;8.644;2022-08-19T12:49:34;1.15;;;1.05;;
7128;SDS011;3606;52.930;8.644;2022-08-19T12:52:02;0.85;;;0.85;;
7128;SDS011;3606;52.930;8.644;2022-08-19T12:54:29;3.22;;;1.13;;
7128;SDS011;3606;52.930;8.644;2022-08-19T12:56:55;0.85;;;0.85;;
7128;SDS011;3606;52.930;8.644;2022-08-19T12:59:21;0.88;;;0.88;;
7128;SDS011;3606;52.930;8.644;2022-08-19T13:01:47;1.25;;;1.15;;
7128;SDS011;3606;52.930;8.644;2022-08-19T13:04:13;1.00;;;0.98;;
7128;SDS011;3606;52.930;8.644;2022-08-19T13:06:38;1.10;;;1.00;;
7128;SDS011;3606;52.930;8.644;2022-08-19T13:09:04;1.70;;;0.80;;
7128;SDS011;3606;52.930;8.644;2022-08-19T13:11:30;2.45;;;1.23;;
7128;SDS011;3606;52.930;8.644;2022-08-19T13:13:59;1.52;;;0.85;;
7128;SDS011;3606;52.930;8.644;2022-08-19T13:16:27;1.27;;;1.17;;
7128;SDS011;3606;52.930;8.644;2022-08-19T13:18:53;1.48;;;1.00;;
7128;SDS011;3606;52.930;8.644;2022-08-19T13:21:20;1.50;;;1.38;;
7128;SDS011;3606;52.930;8.644;2022-08-19T13:23:48;2.90;;;1.27;;
7128;SDS011;3606;52.930;8.644;2022-08-19T13:26:15;2.05;;;1.35;;
7128;SDS011;3606;52.930;8.644;2022-08-19T13:28:41;1.40;;;1.17;;
7128;SDS011;3606;52.930;8.644;2022-08-19T13:31:28;1.77;;;1.40;;
7128;SDS011;3606;52.930;8.644;2022-08-19T13:34:15;1.27;;;1.17;;
7128;SDS011;3606;52.930;8.644;2022-08-19T13:36:44;1.25;;;1.15;;
7128;SDS011;3606;52.930;8.644;2022-08-19T13:39:09;1.70;;;1.17;;
7128;SDS011;3606;52.930;8.644;2022-08-19T13:41:35;1.73;;;1.20;;
7128;SDS011;3606;52.930;8.644;2022-08-19T13:44:03;3.38;;;1.15;;
7128;SDS011;3606;52.930;8.644;2022-08-19T13:46:29;1.52;;;1.40;;
7128;SDS011;3606;52.930;8.644;2022-08-19T13:48:55;2.35;;;1.42;;
7128;SDS011;3606;52.930;8.644;2022-08-19T13:51:21;3.42;;;1.80;;
7128;SDS011;3606;52.930;8.644;2022-08-19T13:53:47;2.03;;;1.77;;
7128;SDS011;3606;52.930;8.644;2022-08-19T13:56:14;2.38;;;1.80;;
7128;SDS011;3606;52.930;8.644;2022-08-19T13:58:41;1.55;;;1.42;;
7128;SDS011;3606;52.930;8.644;2022-08-19T14:01:07;3.30;;;1.80;;
7128;SDS011;3606;52.930;8.644;2022-08-19T14:03:33;2.90;;;1.70;;
7128;SDS011;3606;52.930;8.644;2022-08-19T14:05:59;1.95;;;1.75;;
7128;SDS011;3606;52.930;8.644;2022-08-19T14:08:25;1.90;;;1.80;;
7128;SDS011;3606;52.930;8.644;2022-08-19T14:10:53;2.75;;;1.85;;
7128;SDS011;3606;52.930;8.644;2022-08-19T14:13:20;2.25;;;1.70;;
7128;SDS011;3606;52.930;8.644;2022-08-19T14:15:47;1.60;;;1.48;;
7128;SDS011;3606;52.930;8.644;2022-08-19T14:18:15;1.50;;;1.40;;
7128;SDS011;3606;52.930;8.644;2022-08-19T14:20:42;2.22;;;2.00;;
7128;SDS011;3606;52.930;8.644;2022-08-19T14:23:08;1.67;;;1.42;;
7128;SDS011;3606;52.930;8.644;2022-08-19T14:25:34;1.85;;;1.75;;
7128;SDS011;3606;52.930;8.644;2022-08-19T14:28:00;2.42;;;1.98;;
7128;SDS011;3606;52.930;8.644;2022-08-19T14:30:28;2.20;;;2.00;;
7128;SDS011;3606;52.930;8.644;2022-08-19T14:32:55;1.80;;;1.70;;
7128;SDS011;3606;52.930;8.644;2022-08-19T14:35:23;2.75;;;1.70;;
7128;SDS011;3606;52.930;8.644;2022-08-19T14:37:49;2.25;;;1.80;;
7128;SDS011;3606;52.930;8.644;2022-08-19T14:40:21;2.58;;;2.05;;
7128;SDS011;3606;52.930;8.644;2022-08-19T14:42:53;1.90;;;1.80;;
7128;SDS011;3606;52.930;8.644;2022-08-19T14:45:25;1.98;;;1.80;;
7128;SDS011;3606;52.930;8.644;2022-08-19T14:47:51;2.35;;;2.00;;
7128;SDS011;3606;52.930;8.644;2022-08-19T14:50:17;2.17;;;1.95;;
7128;SDS011;3606;52.930;8.644;2022-08-19T14:52:48;2.13;;;1.90;;
7128;SDS011;3606;52.930;8.644;2022-08-19T14:55:14;2.05;;;1.85;;
7128;SDS011;3606;52.930;8.644;2022-08-19T14:57:41;1.83;;;1.55;;
7128;SDS011;3606;52.930;8.644;2022-08-19T15:00:08;1.83;;;1.58;;
7128;SDS011;3606;52.930;8.644;2022-08-19T15:02:38;2.20;;;2.00;;
7128;SDS011;3606;52.930;8.644;2022-08-19T15:05:04;1.95;;;1.70;;
7128;SDS011;3606;52.930;8.644;2022-08-19T15:07:32;1.98;;;1.88;;
7128;SDS011;3606;52.930;8.644;2022-08-19T15:09:58;2.47;;;1.75;;
7128;SDS011;3606;52.930;8.644;2022-08-19T15:12:24;1.80;;;1.70;;
7128;SDS011;3606;52.930;8.644;2022-08-19T15:14:50;2.58;;;2.10;;
7128;SDS011;3606;52.930;8.644;2022-08-19T15:17:16;3.90;;;1.95;;
7128;SDS011;3606;52.930;8.644;2022-08-19T15:19:42;1.92;;;1.73;;
7128;SDS011;3606;52.930;8.644;2022-08-19T15:22:08;2.40;;;1.75;;
7128;SDS011;3606;52.930;8.644;2022-08-19T15:24:34;2.78;;;1.90;;
7128;SDS011;3606;52.930;8.644;2022-08-19T15:27:00;4.18;;;1.80;;
7128;SDS011;3606;52.930;8.644;2022-08-19T15:29:27;2.38;;;1.85;;